Time;durP1;ratioP1;P1;durP2;ratioP2;P2;SDS_P1;SDS_P2;PMS_P1;PMS_P2;Temp;Humidity;BMP_temperature;BMP_pressure;BME280_temperature;BME280_humidity;BME280_pressure;Samples;Min_cycle;Max_cycle;Signal;HPM_P1;HPM_P2
2024/01/22 00:01:23;;;;;;;8.63;3.72;;;4.00;99.90;;;;;;4960924;28;20045;-64
2024/01/22 00:03:49;;;;;;;8.35;4.18;;;4.10;99.90;;;;;;4965366;28;20038;-63
2024/01/22 00:06:15;;;;;;;8.73;4.07;;;4.20;99.90;;;;;;4964335;28;20047;-64
2024/01/22 00:08:40;;;;;;;15.07;4.63;;;4.30;99.90;;;;;;4965455;28;20092;-64
2024/01/22 00:11:06;;;;;;;7.95;4.40;;;4.30;99.90;;;;;;4962010;28;20117;-63
2024/01/22 00:13:32;;;;;;;12.13;4.38;;;4.20;99.90;;;;;;4965029;28;20081;-64
2024/01/22 00:15:57;;;;;;;7.50;4.20;;;4.20;99.90;;;;;;4967824;28;20066;-64
2024/01/22 00:18:23;;;;;;;7.53;3.53;;;4.10;99.90;;;;;;4963353;28;20423;-64
2024/01/22 00:20:49;;;;;;;6.55;3.50;;;4.10;99.90;;;;;;4965204;28;20035;-64
2024/01/22 00:23:15;;;;;;;8.57;3.55;;;4.10;99.90;;;;;;4968230;28;20098;-65
2024/01/22 00:25:40;;;;;;;8.57;4.13;;;4.20;99.90;;;;;;4968489;28;20117;-62
2024/01/22 00:28:06;;;;;;;10.68;3.75;;;4.20;99.90;;;;;;4968511;28;20043;-64
2024/01/22 00:30:32;;;;;;;8.90;3.70;;;4.30;99.90;;;;;;4966888;28;20047;-63
2024/01/22 00:32:59;;;;;;;5.82;3.53;;;4.30;99.90;;;;;;4968740;28;20101;-63
2024/01/22 00:35:24;;;;;;;7.65;3.70;;;4.30;99.90;;;;;;4967491;28;20473;-64
2024/01/22 00:37:50;;;;;;;5.85;3.53;;;4.40;99.90;;;;;;4971821;28;20034;-64
2024/01/22 00:40:16;;;;;;;5.60;3.17;;;4.50;99.90;;;;;;4967133;28;20026;-63
2024/01/22 00:42:44;;;;;;;7.80;3.22;;;4.40;99.90;;;;;;4969926;28;20039;-64
2024/01/22 00:45:10;;;;;;;9.05;3.78;;;4.30;99.90;;;;;;4964590;28;20042;-64
2024/01/22 00:47:36;;;;;;;6.88;3.33;;;4.20;99.90;;;;;;4968264;28;20046;-64
2024/01/22 00:50:03;;;;;;;7.15;3.53;;;4.20;99.90;;;;;;4968163;28;20037;-64
2024/01/22 00:52:29;;;;;;;6.50;3.33;;;4.20;99.90;;;;;;4978727;28;20062;-63
2024/01/22 00:54:55;;;;;;;8.50;3.17;;;4.20;99.90;;;;;;4966123;28;20553;-64
2024/01/22 00:57:20;;;;;;;6.72;3.20;;;4.20;99.90;;;;;;4968492;28;20699;-64
2024/01/22 00:59:46;;;;;;;7.00;3.45;;;4.20;99.90;;;;;;4968466;28;20403;-64
2024/01/22 01:02:12;;;;;;;5.82;3.67;;;4.10;99.90;;;;;;4973414;28;20023;-64
2024/01/22 01:04:38;;;;;;;5.90;3.60;;;4.10;99.90;;;;;;4968221;28;20070;-64
2024/01/22 01:07:04;;;;;;;9.60;3.35;;;4.10;99.90;;;;;;4968099;28;20035;-64
2024/01/22 01:09:29;;;;;;;5.85;3.20;;;4.10;99.90;;;;;;4962695;28;20511;-64
2024/01/22 01:11:55;;;;;;;9.70;2.80;;;4.10;99.90;;;;;;4967752;28;20035;-64
2024/01/22 01:14:21;;;;;;;7.82;3.03;;;4.20;99.90;;;;;;4969664;28;20062;-64
2024/01/22 01:16:47;;;;;;;10.65;3.42;;;4.30;99.90;;;;;;4967985;28;20031;-63
2024/01/22 01:19:13;;;;;;;5.20;3.15;;;4.20;99.90;;;;;;4967510;28;20034;-64
2024/01/22 01:21:39;;;;;;;7.25;2.70;;;4.20;99.90;;;;;;4967881;28;20105;-63
2024/01/22 01:24:05;;;;;;;4.53;2.88;;;4.10;99.90;;;;;;4973446;28;20026;-64
2024/01/22 01:26:30;;;;;;;5.22;3.03;;;4.20;99.90;;;;;;4967450;28;20566;-64
2024/01/22 01:28:56;;;;;;;6.75;3.15;;;4.20;99.90;;;;;;4963887;28;20065;-64
2024/01/22 01:31:22;;;;;;;6.85;2.97;;;4.20;99.90;;;;;;4965302;28;20078;-64
2024/01/22 01:33:48;;;;;;;5.30;2.90;;;4.40;99.90;;;;;;4966451;28;20117;-64
2024/01/22 01:36:13;;;;;;;7.50;3.15;;;4.40;99.90;;;;;;4973647;28;20112;-63
2024/01/22 01:38:39;;;;;;;3.97;2.95;;;4.50;99.90;;;;;;4969295;28;20046;-64
2024/01/22 01:41:05;;;;;;;7.57;2.95;;;4.50;99.90;;;;;;4967539;28;20037;-64
2024/01/22 01:43:31;;;;;;;5.10;2.85;;;4.40;99.90;;;;;;4967375;28;20043;-64
2024/01/22 01:45:56;;;;;;;3.50;2.30;;;4.30;99.90;;;;;;4967725;28;20412;-64
2024/01/22 01:48:22;;;;;;;4.78;2.35;;;4.30;99.90;;;;;;4981828;28;20038;-64
2024/01/22 01:50:48;;;;;;;5.35;2.40;;;4.30;99.90;;;;;;4969582;28;20977;-64
2024/01/22 01:53:15;;;;;;;5.80;2.70;;;4.30;99.90;;;;;;4967145;28;20125;-64
2024/01/22 01:55:41;;;;;;;4.60;2.30;;;4.50;99.90;;;;;;4965216;28;20084;-64
2024/01/22 01:58:09;;;;;;;7.65;3.00;;;4.50;99.90;;;;;;4965493;28;20101;-64
2024/01/22 02:00:35;;;;;;;7.40;3.05;;;4.50;99.90;;;;;;4968602;28;20027;-64
2024/01/22 02:03:01;;;;;;;9.70;2.92;;;4.40;99.90;;;;;;4967548;28;20042;-64
2024/01/22 02:05:26;;;;;;;7.20;2.72;;;4.40;99.90;;;;;;4966960;28;20043;-63
2024/01/22 02:07:52;;;;;;;7.78;2.90;;;4.50;99.90;;;;;;4966944;28;20027;-64
2024/01/22 02:10:18;;;;;;;7.20;2.95;;;4.60;99.90;;;;;;4964013;28;20138;-64
2024/01/22 02:12:43;;;;;;;7.70;3.00;;;4.70;99.90;;;;;;4962753;28;20559;-64
2024/01/22 02:15:09;;;;;;;5.40;2.35;;;4.70;99.90;;;;;;4966462;28;20133;-63
2024/01/22 02:17:35;;;;;;;4.50;2.38;;;4.70;99.90;;;;;;4966587;28;20037;-64
2024/01/22 02:20:02;;;;;;;4.68;1.95;;;4.80;99.90;;;;;;4966902;28;20443;-64
2024/01/22 02:22:28;;;;;;;4.00;2.10;;;4.90;99.90;;;;;;4965705;28;20736;-64
2024/01/22 02:24:54;;;;;;;5.55;2.30;;;4.90;99.90;;;;;;4962825;28;20049;-64
2024/01/22 02:27:20;;;;;;;4.03;2.55;;;5.00;99.90;;;;;;4972526;28;20145;-64
2024/01/22 02:29:46;;;;;;;5.30;2.78;;;4.90;99.90;;;;;;4967121;28;20045;-64
2024/01/22 02:32:12;;;;;;;4.72;2.55;;;4.90;99.90;;;;;;4966405;28;20019;-64
2024/01/22 02:34:38;;;;;;;3.47;2.20;;;4.80;99.90;;;;;;4963577;28;20499;-64
2024/01/22 02:37:03;;;;;;;7.50;2.83;;;4.80;99.90;;;;;;4966293;28;20036;-64
2024/01/22 02:39:29;;;;;;;3.63;2.30;;;4.80;99.90;;;;;;4966260;28;20026;-64
2024/01/22 02:41:55;;;;;;;3.28;2.35;;;4.80;99.90;;;;;;4966498;28;20041;-64
2024/01/22 02:44:21;;;;;;;4.88;2.60;;;4.80;99.90;;;;;;4965978;28;20031;-64
2024/01/22 02:46:47;;;;;;;4.50;2.40;;;4.80;99.90;;;;;;4963818;28;20042;-64
2024/01/22 02:49:13;;;;;;;4.32;2.72;;;4.80;99.90;;;;;;4966683;28;20038;-64
2024/01/22 02:51:42;;;;;;;4.28;2.42;;;4.80;99.90;;;;;;4972593;28;20426;-64
2024/01/22 02:54:08;;;;;;;3.65;2.55;;;4.80;99.90;;;;;;4966077;28;20053;-64
2024/01/22 02:56:34;;;;;;;5.18;2.92;;;4.80;99.90;;;;;;4966151;28;20491;-64
2024/01/22 02:58:59;;;;;;;5.57;2.67;;;4.70;99.90;;;;;;4967082;28;20045;-64
2024/01/22 03:01:25;;;;;;;3.97;2.67;;;4.80;99.90;;;;;;4969561;28;20475;-64
2024/01/22 03:03:51;;;;;;;5.43;3.03;;;4.80;99.90;;;;;;4966033;28;20038;-64
2024/01/22 03:06:17;;;;;;;5.88;2.72;;;4.90;99.90;;;;;;4965744;28;20093;-64
2024/01/22 03:08:42;;;;;;;7.78;2.65;;;4.80;99.90;;;;;;4968446;28;20074;-64
2024/01/22 03:11:09;;;;;;;7.70;3.42;;;4.90;99.90;;;;;;4966049;28;20126;-64
2024/01/22 03:13:35;;;;;;;5.28;3.03;;;4.90;99.90;;;;;;4958685;28;20109;-64
2024/01/22 03:16:00;;;;;;;6.10;2.78;;;4.90;99.90;;;;;;4961090;28;20808;-64
2024/01/22 03:18:27;;;;;;;4.85;2.95;;;5.00;99.90;;;;;;4961865;28;20527;-64
2024/01/22 03:20:53;;;;;;;3.80;2.35;;;5.10;99.90;;;;;;4962449;28;20065;-64
2024/01/22 03:23:19;;;;;;;7.13;2.83;;;5.10;99.90;;;;;;4967467;28;20062;-64
2024/01/22 03:25:45;;;;;;;4.15;2.45;;;5.10;99.90;;;;;;4969496;28;20063;-65
2024/01/22 03:28:11;;;;;;;4.40;2.30;;;5.10;99.90;;;;;;4965770;28;20030;-63
2024/01/22 03:30:37;;;;;;;5.82;3.22;;;5.10;99.90;;;;;;4962122;28;20122;-64
2024/01/22 03:33:02;;;;;;;6.25;2.83;;;5.10;99.90;;;;;;4965776;28;20137;-64
2024/01/22 03:35:28;;;;;;;3.55;2.67;;;5.20;99.90;;;;;;4966007;28;20053;-64
2024/01/22 03:37:54;;;;;;;3.97;2.60;;;5.20;99.90;;;;;;4965386;28;20042;-64
2024/01/22 03:40:19;;;;;;;5.82;2.72;;;5.30;99.90;;;;;;4965902;28;20035;-65
2024/01/22 03:42:45;;;;;;;4.45;2.70;;;5.50;99.90;;;;;;4962839;28;20034;-64
2024/01/22 03:45:11;;;;;;;6.85;2.83;;;5.50;99.90;;;;;;4969092;28;20041;-64
2024/01/22 03:47:37;;;;;;;7.53;2.72;;;5.60;99.90;;;;;;4967805;28;20727;-64
2024/01/22 03:50:03;;;;;;;5.35;2.42;;;5.60;99.90;;;;;;4964750;28;20146;-65
2024/01/22 03:52:29;;;;;;;5.03;2.33;;;5.70;99.90;;;;;;4967777;28;20123;-64
2024/01/22 03:54:55;;;;;;;6.13;2.92;;;5.70;99.90;;;;;;4968531;28;20510;-64
2024/01/22 03:57:21;;;;;;;4.72;2.53;;;5.70;99.90;;;;;;4974479;28;20023;-64
2024/01/22 03:59:48;;;;;;;6.28;2.33;;;5.70;99.90;;;;;;4970596;28;20077;-64
2024/01/22 04:02:14;;;;;;;4.13;1.98;;;5.70;99.90;;;;;;4965405;28;20039;-64
2024/01/22 04:04:42;;;;;;;4.38;2.20;;;5.70;99.90;;;;;;4970891;28;20035;-64
2024/01/22 04:07:07;;;;;;;5.40;2.45;;;5.70;99.90;;;;;;4965651;28;20030;-64
2024/01/22 04:09:33;;;;;;;5.35;2.20;;;5.60;99.90;;;;;;4968911;28;20394;-64
2024/01/22 04:11:59;;;;;;;6.80;2.30;;;5.80;99.90;;;;;;4974721;28;20035;-64
2024/01/22 04:14:24;;;;;;;5.38;2.10;;;5.90;99.90;;;;;;4968740;28;20039;-65
2024/01/22 04:16:50;;;;;;;5.13;2.28;;;5.70;99.90;;;;;;4972884;28;20042;-64
2024/01/22 04:19:16;;;;;;;3.65;2.17;;;5.80;99.90;;;;;;4968692;28;20034;-64
2024/01/22 04:21:45;;;;;;;5.60;2.20;;;5.90;99.90;;;;;;4967221;28;20046;-64
2024/01/22 04:24:12;;;;;;;3.13;1.70;;;6.00;99.90;;;;;;4968815;28;20035;-64
2024/01/22 04:26:37;;;;;;;5.18;1.83;;;6.10;99.90;;;;;;4968688;28;20161;-64
2024/01/22 04:29:03;;;;;;;4.18;1.58;;;6.20;99.90;;;;;;4962923;28;20137;-64
2024/01/22 04:31:29;;;;;;;4.28;1.92;;;6.40;99.90;;;;;;4965543;28;20062;-64
2024/01/22 04:33:55;;;;;;;3.08;1.50;;;6.50;99.90;;;;;;4967583;28;20438;-64
2024/01/22 04:36:21;;;;;;;2.60;1.60;;;6.60;99.90;;;;;;4967245;28;20034;-64
2024/01/22 04:38:47;;;;;;;3.40;1.73;;;6.50;99.90;;;;;;4966489;28;20062;-64
2024/01/22 04:41:13;;;;;;;4.57;2.00;;;6.30;99.90;;;;;;4967193;28;20027;-64
2024/01/22 04:43:39;;;;;;;3.25;1.83;;;6.10;99.90;;;;;;4968829;28;20053;-64
2024/01/22 04:46:06;;;;;;;4.00;1.50;;;6.10;99.90;;;;;;4968572;28;20097;-65
2024/01/22 04:48:31;;;;;;;1.95;1.10;;;6.20;99.90;;;;;;4966006;28;20395;-64
2024/01/22 04:50:57;;;;;;;3.20;1.48;;;6.30;99.90;;;;;;4971269;28;20039;-65
2024/01/22 04:53:23;;;;;;;2.97;1.10;;;6.40;99.90;;;;;;4967087;28;20047;-64
2024/01/22 04:55:49;;;;;;;2.75;1.75;;;6.50;99.90;;;;;;4967361;28;20038;-64
2024/01/22 04:58:14;;;;;;;2.80;1.60;;;6.50;99.90;;;;;;4967134;28;20023;-64
2024/01/22 05:00:40;;;;;;;3.55;1.40;;;6.50;99.90;;;;;;4967838;28;20486;-64
2024/01/22 05:03:06;;;;;;;4.85;1.50;;;6.60;99.90;;;;;;4968702;28;20122;-64
2024/01/22 05:05:32;;;;;;;4.80;1.42;;;6.60;99.90;;;;;;4966670;28;20038;-63
2024/01/22 05:07:58;;;;;;;3.15;1.50;;;6.60;99.90;;;;;;4967521;28;20061;-65
2024/01/22 05:10:24;;;;;;;2.92;1.05;;;6.80;99.90;;;;;;4967786;28;20558;-64
2024/01/22 05:12:49;;;;;;;3.15;1.33;;;6.80;99.90;;;;;;4967810;28;20149;-64
2024/01/22 05:15:15;;;;;;;2.35;1.10;;;6.90;99.90;;;;;;4967814;28;20118;-64
2024/01/22 05:17:42;;;;;;;2.80;1.48;;;6.90;99.90;;;;;;4967571;28;20491;-64
2024/01/22 05:20:08;;;;;;;3.20;1.75;;;6.80;99.90;;;;;;4967521;28;20639;-64
2024/01/22 05:22:37;;;;;;;2.95;1.60;;;6.80;99.90;;;;;;4982251;28;20034;-65
2024/01/22 05:25:03;;;;;;;2.47;1.30;;;6.80;99.90;;;;;;4967240;28;20031;-65
2024/01/22 05:27:30;;;;;;;2.90;1.25;;;6.80;99.90;;;;;;4966364;28;20034;-64
2024/01/22 05:29:56;;;;;;;3.17;1.30;;;6.90;99.90;;;;;;4967592;28;20058;-64
2024/01/22 05:32:21;;;;;;;2.65;1.10;;;6.90;99.90;;;;;;4964813;28;20109;-64
2024/01/22 05:34:47;;;;;;;4.07;1.30;;;6.90;99.90;;;;;;4965520;28;20514;-64
2024/01/22 05:37:13;;;;;;;2.80;1.40;;;6.90;99.90;;;;;;4971678;28;20110;-63
2024/01/22 05:39:39;;;;;;;1.15;0.80;;;6.90;99.90;;;;;;4967977;28;20042;-64
2024/01/22 05:42:05;;;;;;;1.70;1.27;;;6.90;99.90;;;;;;4967645;28;20085;-64
2024/01/22 05:44:31;;;;;;;1.58;1.00;;;7.00;99.90;;;;;;4967110;28;20038;-64
2024/01/22 05:46:57;;;;;;;1.02;0.98;;;7.00;99.90;;;;;;4966801;28;20564;-64
2024/01/22 05:49:23;;;;;;;3.70;1.20;;;7.00;99.90;;;;;;4967466;28;20119;-64
2024/01/22 05:51:49;;;;;;;4.90;1.58;;;7.00;99.90;;;;;;4981612;28;20495;-64
2024/01/22 05:54:15;;;;;;;2.03;1.30;;;7.10;99.90;;;;;;4963866;28;20035;-64
2024/01/22 05:56:41;;;;;;;3.40;1.30;;;7.10;99.90;;;;;;4967369;28;20031;-64
2024/01/22 05:59:08;;;;;;;4.50;1.00;;;7.10;99.90;;;;;;4966889;28;20088;-63
2024/01/22 06:01:33;;;;;;;4.65;1.23;;;7.20;99.90;;;;;;4969778;28;20561;-64
2024/01/22 06:04:00;;;;;;;1.42;1.20;;;7.30;99.90;;;;;;4966139;28;20035;-65
2024/01/22 06:06:25;;;;;;;4.25;1.75;;;7.30;99.90;;;;;;4966608;28;20039;-65
2024/01/22 06:08:51;;;;;;;1.83;0.93;;;7.30;99.90;;;;;;4967614;28;20089;-64
2024/01/22 06:11:18;;;;;;;3.97;1.23;;;7.30;99.90;;;;;;4964261;28;20042;-64
2024/01/22 06:13:45;;;;;;;1.83;1.13;;;7.30;99.90;;;;;;4966896;28;20196;-64
2024/01/22 06:16:12;;;;;;;2.40;1.30;;;7.30;99.90;;;;;;4966580;28;20053;-64
2024/01/22 06:18:38;;;;;;;1.85;1.42;;;7.20;99.90;;;;;;4968597;28;20035;-64
2024/01/22 06:21:06;;;;;;;2.08;1.00;;;7.30;99.90;;;;;;4966207;28;20035;-64
2024/01/22 06:23:32;;;;;;;3.00;1.50;;;7.30;99.90;;;;;;4966677;28;20062;-64
2024/01/22 06:25:58;;;;;;;2.83;1.00;;;7.30;99.90;;;;;;4966263;28;20060;-64
2024/01/22 06:28:25;;;;;;;3.17;0.95;;;7.30;99.90;;;;;;4967744;28;20045;-64
2024/01/22 06:30:52;;;;;;;1.70;1.00;;;7.40;99.90;;;;;;4966135;28;20149;-64
2024/01/22 06:33:19;;;;;;;2.42;1.00;;;7.40;99.90;;;;;;4966566;28;20030;-65
2024/01/22 06:35:45;;;;;;;2.08;1.25;;;7.40;99.90;;;;;;4962035;28;20612;-64
2024/01/22 06:38:11;;;;;;;3.22;1.00;;;7.40;99.90;;;;;;4965967;28;20789;-65
2024/01/22 06:40:37;;;;;;;1.23;0.90;;;7.50;99.90;;;;;;4966540;28;20030;-64
2024/01/22 06:43:03;;;;;;;1.30;1.02;;;7.40;99.90;;;;;;4966136;28;20092;-64
2024/01/22 06:45:29;;;;;;;1.65;0.95;;;7.40;99.90;;;;;;4966239;28;20038;-63
2024/01/22 06:47:55;;;;;;;6.07;1.23;;;7.40;99.90;;;;;;4968323;28;20046;-64
2024/01/22 06:50:22;;;;;;;3.47;0.95;;;7.30;99.90;;;;;;4965684;28;20043;-65
2024/01/22 06:52:48;;;;;;;2.92;1.10;;;7.30;99.90;;;;;;4964719;28;20053;-64
2024/01/22 06:55:15;;;;;;;6.10;1.50;;;7.30;99.90;;;;;;4966296;28;20113;-64
2024/01/22 06:57:41;;;;;;;2.75;1.38;;;7.30;99.90;;;;;;4968776;28;20023;-63
2024/01/22 07:00:07;;;;;;;2.75;0.90;;;7.30;99.90;;;;;;4966009;28;20041;-64
2024/01/22 07:02:35;;;;;;;3.15;1.85;;;7.30;99.90;;;;;;4969985;28;20408;-64
2024/01/22 07:05:01;;;;;;;2.33;1.20;;;7.20;99.90;;;;;;4965729;28;20126;-65
2024/01/22 07:07:27;;;;;;;5.15;1.10;;;7.20;99.90;;;;;;4965917;28;20041;-64
2024/01/22 07:09:53;;;;;;;1.23;1.05;;;7.30;99.90;;;;;;4965732;28;20030;-64
2024/01/22 07:12:19;;;;;;;2.45;1.30;;;7.20;99.90;;;;;;4968212;28;20145;-64
2024/01/22 07:14:46;;;;;;;3.15;0.88;;;7.10;99.90;;;;;;4975006;28;20045;-64
2024/01/22 07:17:15;;;;;;;2.97;1.40;;;7.20;99.90;;;;;;4964271;28;20062;-64
2024/01/22 07:19:41;;;;;;;2.75;1.10;;;7.20;99.90;;;;;;4962578;28;20043;-64
2024/01/22 07:22:07;;;;;;;2.17;1.10;;;7.30;99.90;;;;;;4964362;28;20027;-64
2024/01/22 07:24:33;;;;;;;1.25;0.90;;;7.40;99.90;;;;;;4966503;28;20033;-63
2024/01/22 07:26:58;;;;;;;2.63;1.15;;;7.30;99.90;;;;;;4965519;28;20034;-64
2024/01/22 07:29:24;;;;;;;2.22;1.25;;;7.40;99.90;;;;;;4962387;28;20126;-64
2024/01/22 07:31:50;;;;;;;1.85;1.05;;;7.30;99.90;;;;;;4967439;28;20058;-64
2024/01/22 07:34:16;;;;;;;2.38;0.85;;;7.30;99.90;;;;;;4965398;28;20105;-64
2024/01/22 07:36:42;;;;;;;2.70;1.13;;;7.30;99.90;;;;;;4974986;28;20038;-64
2024/01/22 07:39:07;;;;;;;0.80;0.80;;;7.40;99.90;;;;;;4969289;28;20023;-65
2024/01/22 07:41:36;;;;;;;1.30;0.95;;;7.40;99.90;;;;;;4983981;28;20128;-64
2024/01/22 07:44:03;;;;;;;2.33;0.98;;;7.30;99.90;;;;;;4969298;28;20034;-64
2024/01/22 07:46:29;;;;;;;3.55;0.90;;;7.30;99.90;;;;;;4969576;28;20062;-64
2024/01/22 07:48:55;;;;;;;2.03;0.88;;;7.30;99.90;;;;;;4969225;28;20077;-64
2024/01/22 07:51:21;;;;;;;2.78;1.33;;;7.40;99.90;;;;;;4974691;28;20504;-64
2024/01/22 07:53:47;;;;;;;1.10;0.70;;;7.40;99.90;;;;;;4967668;28;20045;-64
2024/01/22 07:56:12;;;;;;;2.05;0.98;;;7.30;99.90;;;;;;4968826;28;20032;-64
2024/01/22 07:58:39;;;;;;;0.82;0.70;;;7.30;99.90;;;;;;4969079;28;20549;-64
2024/01/22 08:01:05;;;;;;;2.00;0.98;;;7.30;99.90;;;;;;4968888;28;20035;-64
2024/01/22 08:03:31;;;;;;;6.18;1.02;;;7.30;99.90;;;;;;4969123;28;20039;-64
2024/01/22 08:05:58;;;;;;;1.85;1.15;;;7.20;99.90;;;;;;4972138;28;20112;-64
2024/01/22 08:08:25;;;;;;;2.20;1.20;;;7.10;99.90;;;;;;4964422;28;20144;-64
2024/01/22 08:10:51;;;;;;;2.40;1.23;;;7.10;99.90;;;;;;4968986;28;20055;-64
2024/01/22 08:13:17;;;;;;;3.15;0.95;;;6.90;99.90;;;;;;4970852;28;20549;-64
2024/01/22 08:15:43;;;;;;;2.28;1.20;;;6.80;99.90;;;;;;4971195;28;20038;-64
2024/01/22 08:18:10;;;;;;;1.02;0.70;;;6.90;99.90;;;;;;4974328;28;20125;-65
2024/01/22 08:20:35;;;;;;;2.03;1.40;;;6.90;99.90;;;;;;4969944;28;20122;-64
2024/01/22 08:23:01;;;;;;;2.55;1.10;;;6.80;99.90;;;;;;4968060;28;20042;-64
2024/01/22 08:25:28;;;;;;;1.25;1.15;;;6.80;99.90;;;;;;4962824;28;20674;-63
2024/01/22 08:27:58;;;;;;;0.80;0.70;;;6.70;99.90;;;;;;4954562;28;20031;-64
2024/01/22 08:30:24;;;;;;;1.63;1.10;;;6.70;99.90;;;;;;4943649;28;20589;-64
2024/01/22 08:32:51;;;;;;;1.45;0.85;;;6.70;99.90;;;;;;4960419;28;20093;-64
2024/01/22 08:35:21;;;;;;;4.07;1.02;;;6.60;99.90;;;;;;4968705;28;20030;-64
2024/01/22 08:37:52;;;;;;;1.30;0.70;;;6.70;99.90;;;;;;4962312;28;20035;-65
2024/01/22 08:40:21;;;;;;;1.92;1.13;;;6.70;99.90;;;;;;4967368;28;20034;-64
2024/01/22 08:42:54;;;;;;;3.10;1.40;;;6.70;99.90;;;;;;4966652;28;20054;-64
2024/01/22 08:45:21;;;;;;;3.00;1.40;;;6.60;99.90;;;;;;4968722;28;20663;-64
2024/01/22 08:47:51;;;;;;;2.97;1.00;;;6.70;99.90;;;;;;4967246;28;20747;-63
2024/01/22 08:50:26;;;;;;;3.30;0.82;;;6.80;99.90;;;;;;4969426;28;20034;-63
2024/01/22 08:52:55;;;;;;;2.63;1.23;;;6.80;99.90;;;;;;4967375;28;20046;-63
2024/01/22 08:55:22;;;;;;;1.98;1.00;;;6.80;99.90;;;;;;4967689;28;20573;-64
2024/01/22 08:57:49;;;;;;;2.88;1.35;;;7.00;99.90;;;;;;4967431;28;20215;-64
2024/01/22 09:00:15;;;;;;;2.42;0.73;;;7.00;99.90;;;;;;4967091;28;20698;-64
2024/01/22 09:02:42;;;;;;;1.75;1.05;;;7.00;99.90;;;;;;4967793;28;20057;-64
2024/01/22 09:05:10;;;;;;;4.95;1.30;;;6.90;99.90;;;;;;4966216;28;20554;-64
2024/01/22 09:07:37;;;;;;;1.15;0.73;;;6.90;99.90;;;;;;4966791;28;20041;-64
2024/01/22 09:10:07;;;;;;;3.55;1.35;;;7.00;99.90;;;;;;4968010;28;20437;-64
2024/01/22 09:12:35;;;;;;;3.92;1.10;;;6.90;99.90;;;;;;4967275;28;20471;-64
2024/01/22 09:15:03;;;;;;;3.45;1.75;;;6.90;99.90;;;;;;4966695;28;20110;-64
2024/01/22 09:17:30;;;;;;;5.88;0.85;;;7.00;99.90;;;;;;4964373;28;20518;-64
2024/01/22 09:19:56;;;;;;;1.88;0.82;;;7.00;99.90;;;;;;4966481;28;20114;-64
2024/01/22 09:22:23;;;;;;;1.20;0.77;;;7.10;99.90;;;;;;4965646;28;20033;-64
2024/01/22 09:24:49;;;;;;;1.45;0.70;;;7.10;99.90;;;;;;4965703;28;20050;-64
2024/01/22 09:27:16;;;;;;;3.78;1.00;;;7.10;99.90;;;;;;4968455;28;20039;-64
2024/01/22 09:29:42;;;;;;;1.08;0.70;;;7.10;99.90;;;;;;4965998;28;20039;-64
2024/01/22 09:32:11;;;;;;;2.55;1.00;;;7.20;99.90;;;;;;4967181;28;20688;-64
2024/01/22 09:34:38;;;;;;;0.75;0.60;;;7.30;99.90;;;;;;4968953;28;20564;-64
2024/01/22 09:37:05;;;;;;;2.65;1.15;;;7.30;99.90;;;;;;4966520;28;20054;-64
2024/01/22 09:39:32;;;;;;;2.83;1.27;;;7.40;99.90;;;;;;4966756;28;20202;-64
2024/01/22 09:41:59;;;;;;;1.58;0.75;;;7.50;99.90;;;;;;4966988;28;20395;-64
2024/01/22 09:44:26;;;;;;;2.08;0.82;;;7.60;99.90;;;;;;4966542;28;20027;-64
2024/01/22 09:46:52;;;;;;;1.33;0.77;;;7.70;99.90;;;;;;4968852;28;20035;-64
2024/01/22 09:49:18;;;;;;;2.30;1.25;;;7.70;99.90;;;;;;4966649;28;20023;-64
2024/01/22 09:51:45;;;;;;;1.48;1.10;;;7.80;99.90;;;;;;4967004;28;20042;-64
2024/01/22 09:54:18;;;;;;;1.17;0.95;;;7.80;99.90;;;;;;4962871;28;20105;-64
2024/01/22 09:56:52;;;;;;;2.40;0.90;;;7.90;99.90;;;;;;4966681;28;20070;-64
2024/01/22 09:59:24;;;;;;;1.17;0.85;;;8.10;99.90;;;;;;4966194;28;20851;-64
2024/01/22 10:01:52;;;;;;;2.03;0.95;;;8.10;99.90;;;;;;4967353;28;20755;-64
2024/01/22 10:04:18;;;;;;;3.35;0.80;;;8.20;99.90;;;;;;4966390;28;20074;-64
2024/01/22 10:06:46;;;;;;;1.60;0.60;;;8.20;99.90;;;;;;4962476;28;20736;-64
2024/01/22 10:09:22;;;;;;;1.58;1.13;;;8.30;99.90;;;;;;4959126;28;20042;-64
2024/01/22 10:11:47;;;;;;;;;;;8.40;99.90;;;;;;4965678;28;20034;-64
2024/01/22 10:14:13;;;;;;;1.90;1.27;;;8.30;99.90;;;;;;4966250;28;19929;-63
2024/01/22 10:16:39;;;;;;;1.67;0.85;;;8.40;99.90;;;;;;4965958;28;20403;-65
2024/01/22 10:19:08;;;;;;;1.08;0.70;;;8.40;99.90;;;;;;4966267;28;20177;-65
2024/01/22 10:21:35;;;;;;;0.98;0.75;;;8.40;99.90;;;;;;4964624;28;20395;-64
2024/01/22 10:24:06;;;;;;;1.73;0.73;;;8.50;99.90;;;;;;4963949;28;20080;-65
2024/01/22 10:26:33;;;;;;;2.78;0.90;;;8.60;99.90;;;;;;4963352;28;20044;-65
2024/01/22 10:29:19;;;;;;;0.85;0.60;;;8.60;99.90;;;;;;4963235;28;20816;-62
2024/01/22 10:31:57;;;;;;;;;;;8.60;99.90;;;;;;4962881;28;20028;-65
2024/01/22 10:34:24;;;;;;;;;;;8.70;99.90;;;;;;4966514;28;19914;-64
2024/01/22 10:37:07;;;;;;;;;;;8.70;99.90;;;;;;4968180;28;19909;-64
2024/01/22 10:39:37;;;;;;;;;;;8.70;99.90;;;;;;4965859;28;19916;-65
2024/01/22 10:42:21;;;;;;;;;;;8.70;99.90;;;;;;4967878;28;19921;-64
2024/01/22 10:44:47;;;;;;;;;;;8.80;99.90;;;;;;4964768;28;19926;-64
2024/01/22 10:47:14;;;;;;;;;;;8.90;99.90;;;;;;4965737;28;19914;-64
2024/01/22 10:49:41;;;;;;;;;;;9.00;99.90;;;;;;4963770;28;19921;-64
2024/01/22 10:52:07;;;;;;;;;;;8.90;99.90;;;;;;4966581;28;19921;-64
2024/01/22 10:54:34;;;;;;;;;;;9.00;99.90;;;;;;4967968;28;19918;-64
2024/01/22 10:57:03;;;;;;;;;;;9.00;99.90;;;;;;4968325;28;19997;-63
2024/01/22 10:59:32;;;;;;;;;;;8.90;99.90;;;;;;4965799;28;19968;-65
2024/01/22 11:01:58;;;;;;;;;;;8.90;99.90;;;;;;4963632;28;20286;-61
2024/01/22 11:04:27;;;;;;;;;;;8.90;99.90;;;;;;4965714;28;19913;-62
2024/01/22 11:06:56;;;;;;;;;;;8.90;99.90;;;;;;4962817;28;19914;-62
2024/01/22 11:09:22;;;;;;;;;;;9.00;99.90;;;;;;4962615;28;19933;-62
2024/01/22 11:11:50;;;;;;;;;;;9.10;99.90;;;;;;4965242;28;19914;-62
2024/01/22 11:14:16;;;;;;;;;;;9.00;99.90;;;;;;4965930;28;19918;-62
2024/01/22 11:16:41;;;;;;;;;;;9.10;99.90;;;;;;4965883;28;19936;-62
2024/01/22 11:19:07;;;;;;;;;;;9.20;99.90;;;;;;4979918;28;20635;-62
2024/01/22 11:21:34;;;;;;;;;;;9.20;99.90;;;;;;4966526;28;19918;-62
2024/01/22 11:24:26;;;;;;;;;;;9.20;99.90;;;;;;4964882;28;19925;-62
2024/01/22 11:26:52;;;;;;;;;;;9.20;99.90;;;;;;4961847;28;19914;-62
2024/01/22 11:29:27;;;;;;;;;;;9.20;99.90;;;;;;4964430;28;19916;-62
2024/01/22 11:31:53;;;;;;;;;;;9.20;99.90;;;;;;4963768;28;20021;-62
2024/01/22 11:34:38;;;;;;;;;;;9.20;99.90;;;;;;4969422;28;20360;-62
2024/01/22 11:38:47;;;;;;;2.30;0.90;;;9.30;99.90;;;;;;5002613;27;20468;-61
2024/01/22 11:41:28;;;;;;;0.95;0.77;;;9.30;99.90;;;;;;5011425;28;20034;-61
2024/01/22 11:43:53;;;;;;;1.15;0.43;;;9.40;99.90;;;;;;5015874;28;20824;-61
2024/01/22 11:46:19;;;;;;;2.55;0.80;;;9.40;99.90;;;;;;5013701;28;20045;-61
2024/01/22 11:48:45;;;;;;;2.15;0.73;;;9.30;99.90;;;;;;5013054;28;20057;-61
2024/01/22 11:51:11;;;;;;;2.55;0.80;;;9.40;99.90;;;;;;5017501;28;20456;-61
2024/01/22 11:53:53;;;;;;;0.98;0.50;;;9.40;99.90;;;;;;5017707;28;20807;-61
2024/01/22 11:56:22;;;;;;;0.95;0.60;;;9.40;99.90;;;;;;5011822;28;20042;-64
2024/01/22 11:58:59;;;;;;;1.75;0.75;;;9.50;99.90;;;;;;5014845;28;20037;-61
2024/01/22 12:01:24;;;;;;;;;;;9.50;99.90;;;;;;5007139;28;20030;-61
2024/01/22 12:03:50;;;;;;;1.47;0.60;;;9.50;99.90;;;;;;5009896;28;19984;-63
2024/01/22 12:06:16;;;;;;;0.93;0.57;;;9.60;99.90;;;;;;5005990;28;20034;-61
2024/01/22 12:08:54;;;;;;;1.55;0.60;;;9.70;99.90;;;;;;5015479;28;20049;-61
2024/01/22 12:11:19;;;;;;;0.85;0.50;;;9.80;99.90;;;;;;5005246;28;20559;-65
2024/01/22 12:13:45;;;;;;;0.95;0.50;;;9.80;99.90;;;;;;5008598;28;20053;-64
2024/01/22 12:16:16;;;;;;;1.95;0.47;;;9.70;99.90;;;;;;5003906;28;20046;-64
2024/01/22 12:18:43;;;;;;;1.10;0.70;;;9.80;99.90;;;;;;5009131;28;20738;-66
2024/01/22 12:21:12;;;;;;;1.85;0.50;;;9.80;99.90;;;;;;5006863;28;20038;-61
2024/01/22 12:23:39;;;;;;;1.40;0.68;;;9.80;99.90;;;;;;5016857;28;20732;-62
2024/01/22 12:26:23;;;;;;;1.10;0.60;;;9.80;99.90;;;;;;5000168;28;20057;-61
2024/01/22 12:28:52;;;;;;;0.50;0.50;;;9.80;99.90;;;;;;5011535;28;20029;-60
2024/01/22 12:31:21;;;;;;;1.05;0.57;;;9.80;99.90;;;;;;5012661;28;20122;-60
2024/01/22 12:33:47;;;;;;;2.17;0.40;;;9.80;99.90;;;;;;5013734;28;20036;-61
2024/01/22 12:36:14;;;;;;;1.30;0.70;;;9.80;99.90;;;;;;5012101;28;20067;-61
2024/01/22 12:38:51;;;;;;;1.50;0.50;;;9.80;99.90;;;;;;5015030;28;20046;-61
2024/01/22 12:41:18;;;;;;;0.82;0.50;;;9.80;99.90;;;;;;5014536;28;20464;-62
2024/01/22 12:43:45;;;;;;;0.80;0.60;;;9.70;99.90;;;;;;5010372;28;20104;-61
2024/01/22 12:46:15;;;;;;;1.77;0.70;;;9.80;99.90;;;;;;5035333;28;63114;-61
2024/01/22 12:48:44;;;;;;;0.88;0.47;;;9.80;99.90;;;;;;5010716;28;20497;-61
2024/01/22 12:51:11;;;;;;;1.67;0.50;;;9.80;99.90;;;;;;4999033;28;20483;-62
2024/01/22 12:53:38;;;;;;;0.55;0.30;;;9.80;99.90;;;;;;5002552;28;20026;-62
2024/01/22 12:56:05;;;;;;;0.45;0.40;;;9.80;99.90;;;;;;5000192;28;20054;-61
2024/01/22 12:58:31;;;;;;;1.30;0.52;;;9.70;99.90;;;;;;5003376;28;20022;-63
2024/01/22 13:00:58;;;;;;;0.57;0.45;;;9.80;99.90;;;;;;5003557;28;20033;-61
2024/01/22 13:03:24;;;;;;;0.65;0.40;;;9.70;99.90;;;;;;4999923;28;20142;-61
2024/01/22 13:05:50;;;;;;;2.83;0.55;;;9.80;99.90;;;;;;5003679;28;20677;-61